createdAt,value
2022-12-25T00:00:30.633Z,51.70
2022-12-25T00:01:30.634Z,55.70
2022-12-25T00:02:30.915Z,57.44
2022-12-25T00:03:30.797Z,57.10
2022-12-25T00:04:30.610Z,52.70
2022-12-25T00:05:30.704Z,56.29
2022-12-25T00:06:30.677Z,54.08
2022-12-25T00:07:30.507Z,55.50
2022-12-25T00:08:30.688Z,58.05
2022-12-25T00:09:30.612Z,54.19
2022-12-25T00:10:30.685Z,55.59
2022-12-25T00:11:31.004Z,54.80
2022-12-25T00:12:30.608Z,54.96
2022-12-25T00:13:30.638Z,57.19
2022-12-25T00:14:30.551Z,54.04
2022-12-25T00:15:30.577Z,51.57
2022-12-25T00:16:30.718Z,51.25
2022-12-25T00:17:30.547Z,53.46
2022-12-25T00:18:30.528Z,54.03
2022-12-25T00:19:30.554Z,56.73
2022-12-25T00:20:30.570Z,51.08
2022-12-25T00:21:30.582Z,55.24
2022-12-25T00:22:30.584Z,53.95
2022-12-25T00:23:30.496Z,52.71
2022-12-25T00:24:30.501Z,53.50
2022-12-25T00:25:30.477Z,51.59
2022-12-25T00:26:30.519Z,55.46
2022-12-25T00:27:30.577Z,52.71
2022-12-25T00:28:30.523Z,53.04
2022-12-25T00:29:30.583Z,56.12
2022-12-25T00:30:30.489Z,54.63
2022-12-25T00:31:30.584Z,51.23
2022-12-25T00:32:30.527Z,51.05
2022-12-25T00:33:30.469Z,50.90
2022-12-25T00:34:30.422Z,52.33
2022-12-25T00:35:30.471Z,54.61
2022-12-25T00:36:31.947Z,54.81
2022-12-25T00:37:30.490Z,53.53
2022-12-25T00:38:30.415Z,53.82
2022-12-25T00:39:30.384Z,50.95
2022-12-25T00:40:30.465Z,52.16
2022-12-25T00:41:30.385Z,52.41
2022-12-25T00:42:31.048Z,52.75
2022-12-25T00:43:30.283Z,51.24
2022-12-25T00:44:30.410Z,54.37
2022-12-25T00:45:30.301Z,50.16
2022-12-25T00:46:30.303Z,51.34
2022-12-25T00:47:30.257Z,50.46
2022-12-25T00:48:30.282Z,51.57
2022-12-25T00:49:30.273Z,50.18
2022-12-25T00:50:30.241Z,49.39
2022-12-25T00:51:30.204Z,49.74
2022-12-25T00:52:30.215Z,50.70
2022-12-25T00:53:30.237Z,51.97
2022-12-25T00:54:30.265Z,53.53
2022-12-25T00:55:30.253Z,52.23
2022-12-25T00:56:30.190Z,49.83
2022-12-25T00:57:30.329Z,49.69
2022-12-25T00:58:30.253Z,50.10
2022-12-25T00:59:30.267Z,52.94
2022-12-25T01:00:30.498Z,54.77
2022-12-25T01:01:30.677Z,55.34
2022-12-25T01:02:30.411Z,53.27
2022-12-25T01:03:30.356Z,51.65
2022-12-25T01:04:30.228Z,53.99
2022-12-25T01:05:30.211Z,52.25
2022-12-25T01:06:30.254Z,51.95
2022-12-25T01:07:30.131Z,56.52
2022-12-25T01:08:30.195Z,51.13
2022-12-25T01:09:30.172Z,51.18
2022-12-25T01:10:30.210Z,52.38
2022-12-25T01:11:30.417Z,50.98
2022-12-25T01:12:30.157Z,51.74
2022-12-25T01:13:30.248Z,52.68
2022-12-25T01:14:30.184Z,52.00
2022-12-25T01:15:41.186Z,52.19
2022-12-25T01:16:30.205Z,50.55
2022-12-25T01:17:31.156Z,50.55
2022-12-25T01:18:30.136Z,51.89
2022-12-25T01:19:30.135Z,52.79
2022-12-25T01:20:30.064Z,50.51
2022-12-25T01:21:30.097Z,52.13
2022-12-25T01:22:30.185Z,51.46
2022-12-25T01:23:30.113Z,50.30
2022-12-25T01:24:30.080Z,51.64
2022-12-25T01:25:30.077Z,51.58
2022-12-25T01:26:30.114Z,50.52
2022-12-25T01:27:30.045Z,50.16
2022-12-25T01:28:30.099Z,50.88
2022-12-25T01:29:30.057Z,51.34
2022-12-25T01:30:29.951Z,50.85
2022-12-25T01:31:30.086Z,50.30
2022-12-25T01:32:30.161Z,50.33
2022-12-25T01:33:31.079Z,52.32
2022-12-25T01:34:30.989Z,52.24
2022-12-25T01:35:30.001Z,50.76
2022-12-25T01:36:30.017Z,50.79
2022-12-25T01:37:30.043Z,51.21
2022-12-25T01:38:30.089Z,52.04
2022-12-25T01:39:30.002Z,51.52
2022-12-25T01:40:30.048Z,50.63
2022-12-25T01:41:29.962Z,51.08
2022-12-25T01:42:30.045Z,51.83
2022-12-25T01:43:29.969Z,51.75
2022-12-25T01:44:29.863Z,51.74
2022-12-25T01:45:29.892Z,50.84
2022-12-25T01:46:29.886Z,50.67
2022-12-25T01:47:30.875Z,50.74
2022-12-25T01:48:29.897Z,52.28
2022-12-25T01:49:29.858Z,53.07
2022-12-25T01:50:29.859Z,52.52
2022-12-25T01:51:29.861Z,52.51
2022-12-25T01:52:29.821Z,51.05
2022-12-25T01:53:29.806Z,51.33
2022-12-25T01:54:29.796Z,52.91
2022-12-25T01:55:29.822Z,50.82
2022-12-25T01:56:29.791Z,50.66
2022-12-25T01:57:29.749Z,51.12
2022-12-25T01:58:29.843Z,52.00
2022-12-25T01:59:29.865Z,52.30
2022-12-25T02:00:29.837Z,52.29
2022-12-25T02:01:29.933Z,53.37
2022-12-25T02:02:30.032Z,53.04
2022-12-25T02:03:29.919Z,51.33
2022-12-25T02:04:29.783Z,51.82
2022-12-25T02:05:29.897Z,52.98
2022-12-25T02:06:29.773Z,53.02
2022-12-25T02:07:29.703Z,53.71
2022-12-25T02:08:29.754Z,53.55
2022-12-25T02:09:29.743Z,51.36
2022-12-25T02:10:29.728Z,51.54
2022-12-25T02:11:29.761Z,51.72
2022-12-25T02:12:29.726Z,52.25
2022-12-25T02:13:29.737Z,53.75
2022-12-25T02:14:29.737Z,54.03
2022-12-25T02:15:29.734Z,52.82
2022-12-25T02:16:30.108Z,52.89
2022-12-25T02:17:29.774Z,54.80
2022-12-25T02:18:29.734Z,55.56
2022-12-25T02:19:29.730Z,53.30
2022-12-25T02:20:29.716Z,52.29
2022-12-25T02:21:29.704Z,51.06
2022-12-25T02:22:29.790Z,50.96
2022-12-25T02:23:29.653Z,51.41
2022-12-25T02:24:29.786Z,51.10
2022-12-25T02:25:29.625Z,51.90
2022-12-25T02:26:29.722Z,52.62
2022-12-25T02:27:29.749Z,52.48
2022-12-25T02:28:29.757Z,52.36
2022-12-25T02:29:29.618Z,52.09
2022-12-25T02:30:29.648Z,50.74
2022-12-25T02:31:29.647Z,51.08
2022-12-25T02:32:29.613Z,51.75
2022-12-25T02:33:29.680Z,50.56
2022-12-25T02:34:29.629Z,50.22
2022-12-25T02:35:29.589Z,51.97
2022-12-25T02:36:29.587Z,52.92
2022-12-25T02:37:29.587Z,50.39
2022-12-25T02:38:29.607Z,49.89
2022-12-25T02:39:29.564Z,49.77
2022-12-25T02:40:29.581Z,49.71
2022-12-25T02:41:29.620Z,49.76
2022-12-25T02:42:29.559Z,50.29
2022-12-25T02:43:29.548Z,51.44
2022-12-25T02:44:29.558Z,50.77
2022-12-25T02:45:29.553Z,54.82
2022-12-25T02:46:29.556Z,53.63
2022-12-25T02:47:29.541Z,57.41
2022-12-25T02:48:30.529Z,54.61
2022-12-25T02:49:29.592Z,52.92
2022-12-25T02:50:29.501Z,50.54
2022-12-25T02:51:29.568Z,54.50
2022-12-25T02:52:29.476Z,49.51
2022-12-25T02:53:29.447Z,50.03
2022-12-25T02:54:29.512Z,50.31
2022-12-25T02:55:29.495Z,50.41
2022-12-25T02:56:29.459Z,51.12
2022-12-25T02:57:30.530Z,52.44
2022-12-25T02:58:29.461Z,53.55
2022-12-25T02:59:29.412Z,49.92
2022-12-25T03:00:29.472Z,49.90
2022-12-25T03:01:29.495Z,50.34
2022-12-25T03:02:29.420Z,49.66
2022-12-25T03:03:29.424Z,50.89
2022-12-25T03:04:29.322Z,49.99
2022-12-25T03:05:29.366Z,50.33
2022-12-25T03:06:29.386Z,49.80
2022-12-25T03:07:29.327Z,49.92
2022-12-25T03:08:29.275Z,50.43
2022-12-25T03:09:29.317Z,51.86
2022-12-25T03:10:29.334Z,51.94
2022-12-25T03:11:30.082Z,50.53
2022-12-25T03:12:29.276Z,50.31
2022-12-25T03:13:29.294Z,49.83
2022-12-25T03:14:29.256Z,51.87
2022-12-25T03:15:29.277Z,53.47
2022-12-25T03:16:29.294Z,52.26
2022-12-25T03:17:29.462Z,50.14
2022-12-25T03:18:29.263Z,50.05
2022-12-25T03:19:29.271Z,52.12
2022-12-25T03:20:29.292Z,52.27
2022-12-25T03:21:29.363Z,52.67
2022-12-25T03:22:29.315Z,51.18
2022-12-25T03:23:29.249Z,52.68
2022-12-25T03:25:02.236Z,53.09
2022-12-25T03:25:29.243Z,54.30
2022-12-25T03:26:29.224Z,49.96
2022-12-25T03:27:29.280Z,53.51
2022-12-25T03:28:29.266Z,51.55
2022-12-25T03:29:31.880Z,49.63
2022-12-25T03:30:30.286Z,49.93
2022-12-25T03:31:29.261Z,49.97
2022-12-25T03:32:29.197Z,52.83
2022-12-25T03:33:45.841Z,51.25
2022-12-25T03:34:31.124Z,51.25
2022-12-25T03:35:29.219Z,51.09
2022-12-25T03:36:29.142Z,52.21
2022-12-25T03:37:29.270Z,50.29
2022-12-25T03:38:29.182Z,49.76
2022-12-25T03:39:29.229Z,49.93
2022-12-25T03:40:29.158Z,49.93
2022-12-25T03:41:29.168Z,49.78
2022-12-25T03:42:29.125Z,50.23
2022-12-25T03:43:29.092Z,50.16
2022-12-25T03:44:29.201Z,49.88
2022-12-25T03:45:29.099Z,51.29
2022-12-25T03:46:29.142Z,53.70
2022-12-25T03:47:29.083Z,53.65
2022-12-25T03:48:29.091Z,52.49
2022-12-25T03:49:29.068Z,49.40
2022-12-25T03:50:29.119Z,49.15
2022-12-25T03:51:29.101Z,49.67
2022-12-25T03:52:29.030Z,50.33
2022-12-25T03:53:30.066Z,49.78
2022-12-25T03:54:29.067Z,50.38
2022-12-25T03:55:29.051Z,50.67
2022-12-25T03:56:29.079Z,51.40
2022-12-25T03:57:29.044Z,51.96
2022-12-25T03:58:29.091Z,49.96
2022-12-25T03:59:29.011Z,49.31
2022-12-25T04:00:29.047Z,49.26
2022-12-25T04:01:29.160Z,48.81
2022-12-25T04:02:29.060Z,49.51
2022-12-25T04:03:29.023Z,49.28
2022-12-25T04:04:28.937Z,49.18
2022-12-25T04:05:28.924Z,49.71
2022-12-25T04:06:28.952Z,50.75
2022-12-25T04:07:28.879Z,51.69
2022-12-25T04:08:28.856Z,51.05
2022-12-25T04:09:29.216Z,49.74
2022-12-25T04:10:28.995Z,49.45
2022-12-25T04:11:28.989Z,50.91
2022-12-25T04:12:28.903Z,51.19
2022-12-25T04:13:28.896Z,50.47
2022-12-25T04:14:28.929Z,52.13
2022-12-25T04:15:29.005Z,51.82
2022-12-25T04:16:28.905Z,51.68
2022-12-25T04:17:28.934Z,52.43
2022-12-25T04:18:28.908Z,49.99
2022-12-25T04:19:28.924Z,50.53
2022-12-25T04:20:28.872Z,49.73
2022-12-25T04:21:28.925Z,49.59
2022-12-25T04:22:29.130Z,50.98
2022-12-25T04:23:28.913Z,52.99
2022-12-25T04:24:28.868Z,52.22
2022-12-25T04:25:28.870Z,51.02
2022-12-25T04:26:28.885Z,49.84
2022-12-25T04:27:28.818Z,49.63
2022-12-25T04:28:30.544Z,49.00
2022-12-25T04:29:28.771Z,49.11
2022-12-25T04:30:28.859Z,48.95
2022-12-25T04:31:28.910Z,49.92
2022-12-25T04:32:28.830Z,50.97
2022-12-25T04:33:28.823Z,50.80
2022-12-25T04:34:28.839Z,51.82
2022-12-25T04:35:28.973Z,49.58
2022-12-25T04:36:28.804Z,52.11
2022-12-25T04:37:28.669Z,52.13
2022-12-25T04:38:28.747Z,51.33
2022-12-25T04:39:28.799Z,50.54
2022-12-25T04:40:28.809Z,50.95
2022-12-25T04:41:28.776Z,50.37
2022-12-25T04:42:28.748Z,51.23
2022-12-25T04:43:28.750Z,51.14
2022-12-25T04:44:28.855Z,49.55
2022-12-25T04:45:28.732Z,49.75
2022-12-25T04:46:28.726Z,49.11
2022-12-25T04:47:28.613Z,49.31
2022-12-25T04:48:28.622Z,50.84
2022-12-25T04:49:28.667Z,50.22
2022-12-25T04:50:28.631Z,49.82
2022-12-25T04:51:28.609Z,49.15
2022-12-25T04:52:28.606Z,51.82
2022-12-25T04:53:28.578Z,51.09
2022-12-25T04:54:28.578Z,51.69
2022-12-25T04:55:28.619Z,49.81
2022-12-25T04:58:37.096Z,50.26
2022-12-25T04:59:37.048Z,51.05
2022-12-25T05:00:37.124Z,49.96
2022-12-25T05:01:37.127Z,49.26
2022-12-25T05:02:37.015Z,49.10
2022-12-25T05:03:36.997Z,49.08
2022-12-25T05:04:36.964Z,49.66
2022-12-25T05:05:36.998Z,52.06
2022-12-25T05:06:36.952Z,49.13
2022-12-25T05:07:36.965Z,50.72
2022-12-25T05:08:36.970Z,49.71
2022-12-25T05:09:36.947Z,50.86
2022-12-25T05:10:36.911Z,53.23
2022-12-25T05:11:37.000Z,48.89
2022-12-25T05:12:36.984Z,49.14
2022-12-25T05:13:36.925Z,51.14
2022-12-25T05:14:36.904Z,52.04
2022-12-25T05:15:37.038Z,51.55
2022-12-25T05:16:36.985Z,52.49
2022-12-25T05:17:36.931Z,50.19
2022-12-25T05:18:36.911Z,50.19
2022-12-25T05:20:11.037Z,54.85
2022-12-25T05:20:40.243Z,55.88
2022-12-25T05:21:38.010Z,52.47
2022-12-25T05:22:36.949Z,48.99
2022-12-25T05:23:36.903Z,50.34
2022-12-25T06:09:13.694Z,47.58
2022-12-25T06:10:13.701Z,47.43
2022-12-25T06:11:13.661Z,45.04
2022-12-25T06:12:13.768Z,46.17
2022-12-25T06:13:13.742Z,50.18
2022-12-25T06:14:13.616Z,50.98
2022-12-25T06:15:14.700Z,51.27
2022-12-25T06:16:13.625Z,49.04
2022-12-25T06:17:13.605Z,50.45
2022-12-25T06:18:13.611Z,52.81
2022-12-25T06:19:13.629Z,53.90
2022-12-25T06:20:13.557Z,50.02
2022-12-25T06:21:13.580Z,50.16
2022-12-25T06:22:13.517Z,49.89
2022-12-25T06:23:13.616Z,51.90
2022-12-25T06:24:20.814Z,54.89
2022-12-25T06:25:15.548Z,57.29
2022-12-25T06:26:13.575Z,53.36
2022-12-25T06:27:13.524Z,49.50
2022-12-25T06:28:13.560Z,51.65
2022-12-25T06:29:13.612Z,50.23
2022-12-25T06:30:13.553Z,50.81
2022-12-25T06:31:13.548Z,49.45
2022-12-25T06:32:13.526Z,49.89
2022-12-25T06:33:13.467Z,54.12
2022-12-25T06:34:13.517Z,52.87
2022-12-25T06:35:13.645Z,49.54
2022-12-25T06:36:13.548Z,48.89
2022-12-25T06:37:13.586Z,51.48
2022-12-25T06:38:13.561Z,49.12
2022-12-25T06:39:13.579Z,50.90
2022-12-25T06:40:13.499Z,50.89
2022-12-25T06:41:13.550Z,49.96
2022-12-25T06:42:14.525Z,50.62
2022-12-25T06:43:13.517Z,49.97
2022-12-25T06:44:13.532Z,47.35
2022-12-25T06:45:13.527Z,48.24
2022-12-25T06:46:13.589Z,48.19
2022-12-25T06:47:14.662Z,47.23
2022-12-25T06:48:13.463Z,48.26
2022-12-25T06:49:13.499Z,49.95
2022-12-25T06:50:14.447Z,48.79
2022-12-25T06:51:14.347Z,49.68
2022-12-25T06:52:13.479Z,52.14
2022-12-25T06:53:13.465Z,51.23
2022-12-25T06:54:13.568Z,50.85
2022-12-25T06:55:13.543Z,47.02
2022-12-25T06:56:13.404Z,45.69
2022-12-25T06:57:13.542Z,50.34
2022-12-25T06:58:13.428Z,52.39
2022-12-25T06:59:13.464Z,49.43
2022-12-25T07:00:13.440Z,49.32
2022-12-25T07:01:13.458Z,51.00
2022-12-25T07:02:13.428Z,47.24
2022-12-25T07:03:13.485Z,45.92
2022-12-25T07:04:13.347Z,49.68
2022-12-25T07:05:13.378Z,49.32
2022-12-25T07:06:13.346Z,50.56
2022-12-25T07:07:13.376Z,53.12
2022-12-25T07:08:13.734Z,53.22
2022-12-25T07:09:13.289Z,54.02
2022-12-25T07:10:13.289Z,54.79
2022-12-25T07:11:13.333Z,51.12
2022-12-25T07:12:13.254Z,49.98
2022-12-25T07:13:13.336Z,52.13
2022-12-25T07:14:13.298Z,52.18
2022-12-25T07:15:13.312Z,53.63
2022-12-25T07:16:13.349Z,58.52
2022-12-25T07:17:13.268Z,55.33
2022-12-25T07:18:13.294Z,55.79
2022-12-25T07:19:13.322Z,56.70
2022-12-25T07:20:13.218Z,57.20
2022-12-25T07:21:13.300Z,56.27
2022-12-25T07:22:13.223Z,54.69
2022-12-25T07:23:13.124Z,51.69
2022-12-25T07:24:13.137Z,51.34
2022-12-25T07:25:13.150Z,55.67
2022-12-25T07:26:13.116Z,57.95
2022-12-25T07:27:13.105Z,55.26
2022-12-25T07:28:13.101Z,54.72
2022-12-25T07:29:13.061Z,53.94
2022-12-25T07:30:13.130Z,55.59
2022-12-25T07:31:13.154Z,59.56
2022-12-25T07:32:13.179Z,56.24
2022-12-25T07:33:13.020Z,56.27
2022-12-25T07:34:13.023Z,58.89
2022-12-25T07:35:13.021Z,57.25
2022-12-25T07:36:13.447Z,56.00
2022-12-25T07:37:13.039Z,54.95
2022-12-25T07:38:13.106Z,53.63
2022-12-25T07:39:13.053Z,54.66
2022-12-25T07:40:13.067Z,53.77
2022-12-25T07:41:13.340Z,53.52
2022-12-25T07:42:13.047Z,55.63
2022-12-25T07:43:13.099Z,50.72
2022-12-25T07:44:13.090Z,52.23
2022-12-25T07:45:13.007Z,52.22
2022-12-25T07:46:13.071Z,55.75
2022-12-25T07:47:13.038Z,54.91
2022-12-25T07:48:16.670Z,53.10
2022-12-25T07:49:14.015Z,50.49
2022-12-25T07:50:12.986Z,53.78
2022-12-25T07:51:12.967Z,53.84
2022-12-25T07:52:13.032Z,53.59
2022-12-25T07:53:12.959Z,54.78
2022-12-25T07:54:13.000Z,54.07
2022-12-25T07:55:12.992Z,55.20
2022-12-25T07:56:12.997Z,56.24
2022-12-25T07:57:12.923Z,53.99
2022-12-25T07:58:14.375Z,56.42
2022-12-25T07:59:13.002Z,52.76
2022-12-25T08:00:12.827Z,55.63
2022-12-25T08:01:12.951Z,56.88
2022-12-25T08:02:13.091Z,58.65
2022-12-25T08:03:13.179Z,54.30
2022-12-25T08:04:12.872Z,55.80
2022-12-25T08:05:12.937Z,52.18
2022-12-25T08:06:12.819Z,54.09
2022-12-25T08:07:12.805Z,51.88
2022-12-25T08:08:12.839Z,52.51
2022-12-25T08:09:13.002Z,54.89
2022-12-25T08:10:12.780Z,52.42
2022-12-25T08:11:12.946Z,54.42
2022-12-25T08:12:12.864Z,53.80
2022-12-25T08:13:14.680Z,51.51
2022-12-25T08:14:13.776Z,51.77
2022-12-25T08:15:12.813Z,54.99
2022-12-25T08:16:12.883Z,53.06
2022-12-25T08:17:12.875Z,51.51
2022-12-25T08:18:12.791Z,52.33
2022-12-25T08:19:12.776Z,53.04
2022-12-25T08:20:12.799Z,51.42
2022-12-25T08:21:13.349Z,53.58
2022-12-25T08:22:12.829Z,53.57
2022-12-25T08:23:12.764Z,53.15
2022-12-25T08:24:12.761Z,52.61
2022-12-25T08:25:12.790Z,53.56
2022-12-25T08:26:12.779Z,55.15
2022-12-25T08:27:12.774Z,51.49
2022-12-25T08:28:12.784Z,53.08
2022-12-25T08:29:24.049Z,49.91
2022-12-25T08:30:12.692Z,55.87
2022-12-25T08:31:12.834Z,55.55
2022-12-25T08:32:12.759Z,55.83
2022-12-25T08:33:12.764Z,54.30
2022-12-25T08:34:12.710Z,53.80
2022-12-25T08:35:12.718Z,53.97
2022-12-25T08:36:13.345Z,55.49
2022-12-25T08:37:12.683Z,56.69
2022-12-25T08:38:12.688Z,55.47
2022-12-25T15:23:20.126Z,56.84
2022-12-25T15:24:16.146Z,55.22
2022-12-25T15:25:14.513Z,57.18
2022-12-25T15:26:15.668Z,59.12
2022-12-25T15:27:14.168Z,57.11
2022-12-25T15:28:14.163Z,55.18
2022-12-25T15:29:14.360Z,55.85
2022-12-25T15:30:32.596Z,58.04
2022-12-25T15:31:15.014Z,59.16
2022-12-25T15:32:14.110Z,59.47
2022-12-25T15:33:14.447Z,58.49
2022-12-25T15:34:14.427Z,57.99
2022-12-25T15:35:14.603Z,57.59
2022-12-25T15:36:13.987Z,57.76
2022-12-25T15:37:13.965Z,57.94
2022-12-25T15:38:14.270Z,57.65
2022-12-25T15:39:13.997Z,58.68
2022-12-25T15:40:14.049Z,58.21
2022-12-25T15:41:14.091Z,57.54
2022-12-25T15:42:14.625Z,56.68
2022-12-25T15:43:38.974Z,56.69
2022-12-25T15:44:16.012Z,57.25
2022-12-25T15:45:14.037Z,58.64
2022-12-25T15:46:14.031Z,59.61
2022-12-25T15:47:14.055Z,58.75
2022-12-25T15:48:13.978Z,57.31
2022-12-25T15:49:14.119Z,57.87
2022-12-25T15:50:14.054Z,58.36
2022-12-25T15:51:14.277Z,58.56
2022-12-25T15:52:13.901Z,57.46
2022-12-25T15:53:14.201Z,57.86
2022-12-25T15:54:14.015Z,58.16
2022-12-25T15:55:14.038Z,57.66
2022-12-25T15:56:14.008Z,57.11
2022-12-25T15:57:13.950Z,56.42
2022-12-25T15:58:13.974Z,57.54
2022-12-25T15:59:14.056Z,59.71
2022-12-25T16:00:14.017Z,58.02
2022-12-25T16:01:14.226Z,58.24
2022-12-25T16:02:14.075Z,58.43
2022-12-25T16:03:14.027Z,58.78
2022-12-25T16:04:14.042Z,57.63
2022-12-25T16:05:22.758Z,56.62
2022-12-25T16:06:15.011Z,56.74
2022-12-25T16:07:13.931Z,58.11
2022-12-25T16:08:14.055Z,56.68
2022-12-25T16:09:14.064Z,56.11
2022-12-25T16:10:19.018Z,56.94
2022-12-25T16:11:13.881Z,58.55
2022-12-25T16:12:13.791Z,57.42
2022-12-25T16:13:13.699Z,56.44
2022-12-25T16:14:13.931Z,57.50
2022-12-25T16:15:13.922Z,58.07
2022-12-25T16:16:13.784Z,58.01
2022-12-25T16:17:14.533Z,57.42
2022-12-25T16:18:13.876Z,59.13
2022-12-25T16:19:13.811Z,59.26
2022-12-25T16:20:13.696Z,59.30
2022-12-25T16:21:13.937Z,58.65
2022-12-25T16:22:13.702Z,58.78
2022-12-25T16:23:13.791Z,58.82
2022-12-25T16:24:13.935Z,59.10
2022-12-25T16:25:13.911Z,58.14
2022-12-25T16:26:13.735Z,57.98
2022-12-25T16:27:13.635Z,58.80
2022-12-25T16:28:14.094Z,57.30
2022-12-25T16:29:13.793Z,59.93
2022-12-25T16:30:13.634Z,58.74
2022-12-25T16:31:13.962Z,57.68
2022-12-25T16:32:14.000Z,58.56
2022-12-25T16:33:14.284Z,58.54
2022-12-25T16:34:13.755Z,58.95
2022-12-25T16:35:13.846Z,56.88
2022-12-25T16:36:13.560Z,57.38
2022-12-25T16:37:13.598Z,56.63
2022-12-25T16:38:13.577Z,57.01
2022-12-25T16:39:13.846Z,57.55
2022-12-25T16:40:13.558Z,57.07
2022-12-25T16:41:13.964Z,58.49
2022-12-25T16:42:13.560Z,56.51
2022-12-25T16:43:17.470Z,58.26
2022-12-25T16:44:14.790Z,56.14
2022-12-25T16:45:13.606Z,58.31
2022-12-25T16:46:13.633Z,59.59
2022-12-25T16:47:13.608Z,58.69
2022-12-25T16:48:13.564Z,57.62
2022-12-25T16:49:13.540Z,57.55
2022-12-25T16:50:13.597Z,56.54
2022-12-25T16:51:13.600Z,57.22
2022-12-25T16:52:14.519Z,57.18
2022-12-25T16:53:13.462Z,57.50
2022-12-25T16:54:13.558Z,56.92
2022-12-25T16:55:13.610Z,56.94
2022-12-25T16:56:13.441Z,57.16
2022-12-25T16:57:13.438Z,57.31
2022-12-25T16:58:14.131Z,57.50
2022-12-25T16:59:13.429Z,57.97
2022-12-25T17:00:13.426Z,57.78
2022-12-25T17:01:13.444Z,58.61
2022-12-25T17:02:13.496Z,59.26
2022-12-25T17:03:13.724Z,58.35
2022-12-25T17:04:13.474Z,58.24
2022-12-25T17:05:13.640Z,57.09
2022-12-25T17:06:13.414Z,59.04
2022-12-25T17:07:13.423Z,58.13
2022-12-25T17:08:13.458Z,56.14
2022-12-25T17:09:13.725Z,57.87
2022-12-25T17:10:13.425Z,58.93
2022-12-25T17:11:13.259Z,58.08
2022-12-25T17:12:13.387Z,56.68
2022-12-25T17:13:13.246Z,56.34
2022-12-25T17:14:13.328Z,57.18
2022-12-25T17:15:13.303Z,56.72
2022-12-25T17:16:13.317Z,58.26
2022-12-25T17:17:13.333Z,58.55
2022-12-25T17:18:13.237Z,58.24
2022-12-25T17:19:13.301Z,56.62
2022-12-25T17:20:13.262Z,57.94
2022-12-25T17:21:13.230Z,59.66
2022-12-25T17:22:13.263Z,57.83
2022-12-25T17:23:13.536Z,57.56
2022-12-25T17:24:13.328Z,56.55
2022-12-25T17:25:13.261Z,58.04
2022-12-25T17:26:13.344Z,56.05
2022-12-25T17:27:13.226Z,57.52
2022-12-25T17:28:13.917Z,56.63
2022-12-25T17:29:18.553Z,57.44
2022-12-25T17:30:15.208Z,58.91
2022-12-25T17:31:13.271Z,58.69
2022-12-25T17:32:13.173Z,58.78
2022-12-25T17:33:13.297Z,56.63
2022-12-25T17:34:13.221Z,56.80
2022-12-25T17:35:13.255Z,55.94
2022-12-25T17:36:13.208Z,57.14
2022-12-25T17:37:13.178Z,58.56
2022-12-25T17:38:13.137Z,58.26
2022-12-25T17:39:13.185Z,57.60
2022-12-25T17:40:13.191Z,59.10
2022-12-25T17:41:13.566Z,59.76
2022-12-25T17:42:13.197Z,57.85
2022-12-25T17:43:17.330Z,58.54
2022-12-25T17:44:15.247Z,56.32
2022-12-25T17:45:13.208Z,57.02
2022-12-25T17:46:13.127Z,57.98
2022-12-25T17:47:13.069Z,58.83
2022-12-25T17:48:13.152Z,57.18
2022-12-25T17:49:13.115Z,56.83
2022-12-25T17:50:13.185Z,57.03
2022-12-25T17:51:13.131Z,58.95
2022-12-25T17:52:13.053Z,57.55
2022-12-25T17:53:13.035Z,56.68
2022-12-25T17:54:13.106Z,58.06
2022-12-25T17:55:13.282Z,57.44
2022-12-25T17:56:13.341Z,58.24
2022-12-25T17:57:13.022Z,59.16
2022-12-25T17:58:13.038Z,55.85
2022-12-25T17:59:13.093Z,55.25
2022-12-25T18:00:13.957Z,57.31
2022-12-25T18:01:13.199Z,55.67
2022-12-25T18:02:13.277Z,57.48
2022-12-25T18:03:13.435Z,56.14
2022-12-25T18:04:13.413Z,56.68
2022-12-25T18:05:13.680Z,56.63
2022-12-25T18:06:12.969Z,60.73
2022-12-25T18:07:13.260Z,59.91
2022-12-25T18:08:13.416Z,59.62
2022-12-25T18:09:13.405Z,60.07
2022-12-25T18:10:13.457Z,58.32
2022-12-25T18:11:13.294Z,55.61
2022-12-25T18:12:12.993Z,55.20
2022-12-25T18:13:13.639Z,55.20
2022-12-25T18:14:13.570Z,55.25
2022-12-25T18:15:13.548Z,57.54
2022-12-25T18:16:14.039Z,56.78
2022-12-25T18:17:13.497Z,56.46
2022-12-25T18:18:13.204Z,56.19
2022-12-25T18:19:13.169Z,56.79
2022-12-25T18:20:12.947Z,58.30
2022-12-25T18:21:13.464Z,55.82
2022-12-25T18:22:13.707Z,55.75
2022-12-25T18:23:13.461Z,53.58
2022-12-25T18:24:13.453Z,55.09
2022-12-25T18:25:13.145Z,55.59
2022-12-25T18:26:13.446Z,57.26
2022-12-25T18:27:13.444Z,57.60
2022-12-25T18:28:13.482Z,55.28
2022-12-25T18:29:13.355Z,56.15
2022-12-25T18:30:13.414Z,55.26
2022-12-25T18:31:13.503Z,55.81
2022-12-25T18:32:13.182Z,57.57
2022-12-25T18:33:13.791Z,56.07
2022-12-25T18:34:12.943Z,55.80
2022-12-25T18:35:12.976Z,58.08
2022-12-25T18:36:12.987Z,55.13
2022-12-25T18:37:13.401Z,55.87
2022-12-25T18:38:13.064Z,57.27
2022-12-25T18:39:13.423Z,59.67
2022-12-25T18:40:13.327Z,58.93
2022-12-25T18:41:13.146Z,55.82
2022-12-25T18:42:12.838Z,55.44
2022-12-25T18:43:12.713Z,54.17
2022-12-25T18:44:12.752Z,56.10
2022-12-25T18:45:13.012Z,55.44
2022-12-25T18:46:14.287Z,56.34
2022-12-25T18:47:13.249Z,56.91
2022-12-25T18:48:14.345Z,56.91
2022-12-25T18:49:13.459Z,53.71
2022-12-25T18:50:13.315Z,54.68
2022-12-25T18:51:14.186Z,55.51
2022-12-25T18:52:47.928Z,55.16
2022-12-25T18:53:13.650Z,55.40
2022-12-25T18:54:13.228Z,56.53
2022-12-25T18:55:13.574Z,56.19
2022-12-25T18:56:13.035Z,56.08
2022-12-25T18:57:13.226Z,55.19
2022-12-25T18:58:12.805Z,54.99
2022-12-25T18:59:12.946Z,54.56
2022-12-25T19:00:12.615Z,55.74
2022-12-25T19:01:12.839Z,53.58
2022-12-25T19:02:12.903Z,54.96
2022-12-25T19:03:12.756Z,56.16
2022-12-25T19:04:13.047Z,56.17
2022-12-25T19:05:13.450Z,56.01
2022-12-25T19:06:13.208Z,56.12
2022-12-25T19:07:13.211Z,55.15
2022-12-25T19:08:12.890Z,57.18
2022-12-25T19:09:13.060Z,53.92
2022-12-25T19:10:12.568Z,53.57
2022-12-25T19:11:12.630Z,55.11
2022-12-25T19:12:12.576Z,54.37
2022-12-25T19:13:12.565Z,54.81
2022-12-25T19:14:13.153Z,55.20
2022-12-25T19:15:37.000Z,55.69
2022-12-25T19:16:13.047Z,56.40
2022-12-25T19:17:13.100Z,54.55
2022-12-25T19:18:13.083Z,55.82
2022-12-25T19:19:13.254Z,53.74
2022-12-25T19:20:12.807Z,53.29
2022-12-25T19:21:12.561Z,55.26
2022-12-25T19:22:12.677Z,55.25
2022-12-25T19:23:12.419Z,53.38
2022-12-25T19:24:12.804Z,54.33
2022-12-25T19:25:12.564Z,55.83
2022-12-25T19:26:12.542Z,57.49
2022-12-25T19:27:12.798Z,56.34
2022-12-25T19:28:12.872Z,55.48
2022-12-25T19:29:12.432Z,53.27
2022-12-25T19:30:12.788Z,54.60
2022-12-25T19:31:12.853Z,54.64
2022-12-25T19:32:12.989Z,57.16
2022-12-25T19:33:17.763Z,56.31
2022-12-25T19:34:14.780Z,54.67
2022-12-25T19:35:12.335Z,55.90
2022-12-25T19:36:12.758Z,54.29
2022-12-25T19:37:12.729Z,54.90
2022-12-25T19:38:12.345Z,54.97
2022-12-25T19:39:12.422Z,52.86
2022-12-25T19:40:13.965Z,54.20
2022-12-25T19:41:13.510Z,55.07
2022-12-25T19:42:12.526Z,55.33
2022-12-25T19:43:13.162Z,55.14
2022-12-25T19:44:12.857Z,54.96
2022-12-25T19:45:12.763Z,56.42
2022-12-25T19:46:12.788Z,56.90
2022-12-25T19:47:12.867Z,53.66
2022-12-25T19:48:12.503Z,54.20
2022-12-25T19:49:12.546Z,53.23
2022-12-25T19:50:12.807Z,54.10
2022-12-25T19:51:12.747Z,56.05
2022-12-25T19:52:12.740Z,54.33
2022-12-25T19:53:12.822Z,57.03
2022-12-25T19:54:13.944Z,54.33
2022-12-25T19:55:12.602Z,57.49
2022-12-25T19:56:12.366Z,55.57
2022-12-25T19:57:15.784Z,55.68
2022-12-25T19:58:12.104Z,55.21
2022-12-25T19:59:12.982Z,55.60
2022-12-25T20:00:12.651Z,55.00
2022-12-25T20:01:12.668Z,54.15
2022-12-25T20:02:12.805Z,53.21
2022-12-25T20:03:12.182Z,54.03
2022-12-25T20:04:12.384Z,52.96
2022-12-25T20:05:12.949Z,55.22
2022-12-25T20:06:12.370Z,55.11
2022-12-25T20:07:12.419Z,55.67
2022-12-25T20:08:12.342Z,53.16
2022-12-25T20:09:12.328Z,53.37
2022-12-25T20:10:12.970Z,53.82
2022-12-25T20:11:12.291Z,52.57
2022-12-25T20:12:12.469Z,53.86
2022-12-25T20:13:12.570Z,55.33
2022-12-25T20:14:12.389Z,54.32
2022-12-25T20:15:12.046Z,56.11
2022-12-25T20:16:12.392Z,55.95
2022-12-25T20:17:15.996Z,56.30
2022-12-25T20:18:13.229Z,57.80
2022-12-25T20:19:12.337Z,56.95
2022-12-25T20:20:12.041Z,54.07
2022-12-25T20:21:12.640Z,53.76
2022-12-25T20:22:12.262Z,53.69
2022-12-25T20:23:12.164Z,53.66